createdAt,value
2018-12-05T00:00:08.968Z,45.81
2018-12-05T00:01:08.978Z,45.81
2018-12-05T00:02:08.950Z,45.72
2018-12-05T00:03:08.940Z,45.92
2018-12-05T00:04:08.931Z,45.92
2018-12-05T00:05:08.913Z,45.81
2018-12-05T00:06:08.923Z,45.92
2018-12-05T00:07:08.893Z,45.72
2018-12-05T00:08:08.880Z,45.62
2018-12-05T00:09:08.873Z,45.72
2018-12-05T00:10:08.866Z,45.72
2018-12-05T00:11:08.864Z,45.72
2018-12-05T00:12:08.839Z,45.72
2018-12-05T00:13:08.841Z,45.81
2018-12-05T00:14:08.817Z,45.81
2018-12-05T00:15:08.803Z,45.72
2018-12-05T00:16:08.813Z,45.81
2018-12-05T00:17:08.788Z,45.72
2018-12-05T00:18:08.777Z,45.84
2018-12-05T00:19:08.776Z,45.81
2018-12-05T00:20:08.749Z,45.72
2018-12-05T00:21:08.754Z,45.81
2018-12-05T00:22:08.727Z,45.81
2018-12-05T00:23:08.732Z,45.62
2018-12-05T00:24:08.990Z,45.64
2018-12-05T00:25:08.692Z,45.62
2018-12-05T00:26:08.698Z,46.14
2018-12-05T00:27:08.675Z,45.81
2018-12-05T00:28:08.675Z,45.94
2018-12-05T00:29:08.661Z,45.42
2018-12-05T00:30:08.659Z,44.93
2018-12-05T00:31:08.643Z,45.34
2018-12-05T00:32:08.628Z,45.24
2018-12-05T00:33:08.615Z,45.04
2018-12-05T00:34:08.595Z,45.24
2018-12-05T00:35:08.589Z,45.12
2018-12-05T00:36:08.609Z,45.14
2018-12-05T00:37:08.561Z,45.12
2018-12-05T00:38:08.550Z,45.12
2018-12-05T00:39:08.538Z,45.14
2018-12-05T00:40:08.527Z,45.12
2018-12-05T00:41:08.532Z,45.12
2018-12-05T00:42:08.521Z,45.21
2018-12-05T00:43:08.500Z,45.01
2018-12-05T00:44:08.484Z,45.12
2018-12-05T00:45:08.488Z,45.21
2018-12-05T00:46:08.487Z,45.21
2018-12-05T00:47:08.452Z,45.01
2018-12-05T00:48:08.439Z,45.21
2018-12-05T00:49:08.436Z,45.21
2018-12-05T00:50:08.419Z,45.21
2018-12-05T00:51:08.423Z,45.21
2018-12-05T00:52:08.406Z,45.21
2018-12-05T00:53:08.390Z,45.42
2018-12-05T00:54:08.381Z,45.62
2018-12-05T00:55:08.365Z,45.42
2018-12-05T00:56:08.367Z,45.51
2018-12-05T00:57:08.347Z,45.21
2018-12-05T00:58:08.331Z,45.42
2018-12-05T00:59:08.326Z,45.31
2018-12-05T01:00:08.312Z,45.31
2018-12-05T01:01:08.314Z,45.31
2018-12-05T01:02:08.291Z,45.42
2018-12-05T01:03:08.280Z,45.31
2018-12-05T01:04:08.267Z,45.31
2018-12-05T01:05:08.281Z,45.42
2018-12-05T01:06:08.267Z,45.31
2018-12-05T01:07:08.231Z,45.42
2018-12-05T01:08:08.227Z,45.31
2018-12-05T01:09:08.216Z,45.62
2018-12-05T01:10:08.198Z,45.31
2018-12-05T01:11:08.212Z,45.62
2018-12-05T01:12:08.175Z,45.31
2018-12-05T01:13:08.166Z,45.72
2018-12-05T01:14:08.156Z,45.62
2018-12-05T01:15:08.161Z,45.42
2018-12-05T01:16:08.158Z,45.31
2018-12-05T01:17:08.122Z,45.42
2018-12-05T01:18:08.122Z,45.81
2018-12-05T01:19:08.102Z,45.62
2018-12-05T01:20:08.091Z,45.62
2018-12-05T01:21:08.102Z,45.42
2018-12-05T01:22:08.075Z,45.62
2018-12-05T01:23:08.054Z,45.51
2018-12-05T01:24:08.042Z,45.21
2018-12-05T01:25:08.045Z,45.62
2018-12-05T01:26:08.042Z,45.01
2018-12-05T01:27:08.028Z,45.21
2018-12-05T01:28:08.005Z,45.51
2018-12-05T01:29:07.986Z,45.21
2018-12-05T01:30:07.975Z,45.21
2018-12-05T01:31:07.980Z,45.31
2018-12-05T01:32:07.960Z,45.31
2018-12-05T01:33:07.942Z,45.12
2018-12-05T01:34:07.947Z,45.21
2018-12-05T01:35:07.930Z,45.12
2018-12-05T01:36:07.928Z,45.12
2018-12-05T01:37:07.905Z,45.12
2018-12-05T01:38:07.891Z,45.12
2018-12-05T01:39:07.876Z,45.01
2018-12-05T01:40:07.873Z,45.12
2018-12-05T01:41:07.855Z,45.01
2018-12-05T01:42:07.864Z,45.12
2018-12-05T01:43:07.837Z,45.21
2018-12-05T01:44:07.838Z,45.01
2018-12-05T01:45:07.812Z,45.12
2018-12-05T01:46:07.836Z,45.12
2018-12-05T01:47:07.812Z,45.12
2018-12-05T01:48:07.784Z,45.01
2018-12-05T01:49:07.768Z,45.12
2018-12-05T01:50:07.765Z,45.21
2018-12-05T01:51:07.751Z,45.51
2018-12-05T01:52:07.747Z,45.14
2018-12-05T01:53:07.724Z,45.21
2018-12-05T01:54:07.715Z,45.42
2018-12-05T01:55:07.708Z,45.43
2018-12-05T01:56:07.689Z,45.62
2018-12-05T01:57:07.695Z,45.21
2018-12-05T01:58:07.669Z,45.24
2018-12-05T01:59:07.659Z,45.64
2018-12-05T02:00:07.648Z,46.12
2018-12-05T02:01:07.636Z,45.94
2018-12-05T02:02:07.643Z,45.92
2018-12-05T02:03:07.613Z,45.81
2018-12-05T02:04:07.601Z,45.51
2018-12-05T02:05:07.600Z,45.21
2018-12-05T02:06:07.580Z,45.21
2018-12-05T02:07:07.646Z,45.92
2018-12-05T02:08:07.559Z,46.31
2018-12-05T02:09:07.548Z,46.01
2018-12-05T02:10:07.535Z,46.01
2018-12-05T02:11:07.531Z,46.01
2018-12-05T02:12:07.534Z,46.12
2018-12-05T02:13:07.503Z,45.92
2018-12-05T02:14:07.493Z,46.51
2018-12-05T02:15:07.482Z,46.72
2018-12-05T02:16:07.470Z,46.62
2018-12-05T02:17:07.477Z,46.62
2018-12-05T02:18:07.452Z,46.31
2018-12-05T02:19:07.447Z,46.81
2018-12-05T02:20:07.428Z,46.72
2018-12-05T02:21:07.416Z,46.72
2018-12-05T02:22:07.421Z,46.51
2018-12-05T02:23:07.394Z,46.51
2018-12-05T02:24:07.383Z,46.31
2018-12-05T02:25:07.370Z,46.62
2018-12-05T02:26:07.361Z,46.51
2018-12-05T02:27:07.365Z,46.72
2018-12-05T02:28:07.339Z,46.51
2018-12-05T02:29:07.328Z,46.62
2018-12-05T02:30:07.317Z,46.42
2018-12-05T02:31:07.325Z,46.42
2018-12-05T02:32:07.334Z,46.42
2018-12-05T02:33:07.284Z,46.62
2018-12-05T02:34:07.272Z,46.42
2018-12-05T02:35:07.262Z,46.42
2018-12-05T02:36:07.254Z,46.12
2018-12-05T02:37:07.260Z,46.62
2018-12-05T02:38:07.232Z,46.62
2018-12-05T02:39:07.218Z,46.62
2018-12-05T02:40:07.213Z,46.42
2018-12-05T02:41:07.198Z,46.62
2018-12-05T02:42:07.199Z,46.62
2018-12-05T02:43:07.175Z,46.62
2018-12-05T02:44:07.162Z,46.72
2018-12-05T02:45:07.160Z,46.42
2018-12-05T02:46:07.141Z,46.62
2018-12-05T02:47:07.151Z,46.62
2018-12-05T02:48:07.120Z,46.62
2018-12-05T02:49:07.115Z,46.62
2018-12-05T02:50:07.100Z,46.51
2018-12-05T02:51:07.094Z,46.51
2018-12-05T02:52:07.092Z,46.51
2018-12-05T02:53:07.065Z,46.31
2018-12-05T02:54:07.052Z,46.62
2018-12-05T02:55:07.046Z,46.42
2018-12-05T02:56:07.030Z,46.51
2018-12-05T02:57:07.036Z,46.72
2018-12-05T02:58:07.009Z,46.62
2018-12-05T02:59:07.002Z,46.62
2018-12-05T03:00:06.993Z,46.42
2018-12-05T03:01:06.988Z,46.42
2018-12-05T03:02:06.982Z,46.62
2018-12-05T03:03:06.960Z,46.51
2018-12-05T03:04:06.946Z,46.62
2018-12-05T03:05:07.917Z,46.62
2018-12-05T03:06:06.934Z,46.51
2018-12-05T03:07:06.931Z,46.42
2018-12-05T03:08:06.898Z,46.51
2018-12-05T03:09:06.894Z,46.42
2018-12-05T03:10:06.879Z,46.31
2018-12-05T03:11:06.867Z,46.31
2018-12-05T03:12:06.880Z,46.31
2018-12-05T03:13:06.851Z,46.31
2018-12-05T03:14:06.835Z,46.12
2018-12-05T03:15:06.823Z,46.42
2018-12-05T03:16:06.812Z,46.51
2018-12-05T03:17:06.815Z,46.51
2018-12-05T03:18:06.789Z,46.51
2018-12-05T03:19:06.777Z,46.51
2018-12-05T03:20:06.776Z,46.31
2018-12-05T03:21:06.763Z,46.51
2018-12-05T03:22:06.774Z,46.31
2018-12-05T03:23:06.736Z,46.31
2018-12-05T03:24:06.730Z,46.12
2018-12-05T03:25:06.719Z,46.12
2018-12-05T03:26:06.702Z,46.31
2018-12-05T03:27:06.691Z,46.42
2018-12-05T03:28:06.708Z,46.31
2018-12-05T03:29:06.892Z,46.12
2018-12-05T03:30:06.662Z,46.12
2018-12-05T03:31:06.654Z,46.62
2018-12-05T03:32:06.637Z,46.31
2018-12-05T03:33:06.648Z,46.31
2018-12-05T03:34:06.614Z,46.31
2018-12-05T03:35:06.602Z,46.31
2018-12-05T03:36:06.591Z,46.51
2018-12-05T03:37:06.588Z,46.51
2018-12-05T03:38:06.591Z,46.31
2018-12-05T03:39:06.564Z,46.31
2018-12-05T03:40:06.548Z,46.42
2018-12-05T03:41:06.542Z,46.51
2018-12-05T03:42:06.527Z,46.31
2018-12-05T03:43:06.551Z,46.51
2018-12-05T03:44:06.509Z,46.51
2018-12-05T03:45:06.495Z,46.62
2018-12-05T03:46:06.485Z,46.62
2018-12-05T03:47:06.471Z,46.62
2018-12-05T03:48:06.474Z,46.51
2018-12-05T03:49:06.456Z,46.62
2018-12-05T03:50:06.450Z,46.62
2018-12-05T03:51:06.429Z,46.51
2018-12-05T03:52:06.417Z,46.64
2018-12-05T03:53:06.421Z,46.62
2018-12-05T03:54:06.408Z,46.62
2018-12-05T03:55:06.382Z,46.42
2018-12-05T03:56:06.381Z,46.51
2018-12-05T03:57:06.367Z,46.42
2018-12-05T03:58:06.366Z,46.62
2018-12-05T03:59:06.338Z,46.42
2018-12-05T04:00:06.327Z,46.62
2018-12-05T04:01:06.321Z,46.62
2018-12-05T04:02:06.313Z,46.12
2018-12-05T04:03:06.312Z,46.31
2018-12-05T04:04:06.284Z,46.31
2018-12-05T04:05:06.275Z,46.31
2018-12-05T04:06:06.273Z,46.12
2018-12-05T04:07:06.252Z,46.42
2018-12-05T04:08:06.257Z,46.51
2018-12-05T04:09:06.236Z,46.72
2018-12-05T04:10:06.222Z,46.72
2018-12-05T04:11:06.218Z,46.51
2018-12-05T04:12:06.197Z,46.51
2018-12-05T04:13:06.200Z,46.31
2018-12-05T04:14:06.175Z,46.42
2018-12-05T04:15:06.164Z,46.44
2018-12-05T04:16:06.153Z,46.42
2018-12-05T04:17:06.149Z,46.51
2018-12-05T04:18:06.275Z,46.64
2018-12-05T04:19:06.132Z,46.01
2018-12-05T04:20:06.114Z,46.04
2018-12-05T04:21:06.097Z,45.74
2018-12-05T04:22:06.086Z,45.62
2018-12-05T04:23:06.120Z,45.84
2018-12-05T04:24:06.064Z,45.84
2018-12-05T04:25:06.061Z,45.54
2018-12-05T04:26:06.045Z,45.43
2018-12-05T04:27:06.032Z,45.74
2018-12-05T04:28:06.028Z,45.74
2018-12-05T04:29:06.204Z,45.94
2018-12-05T04:30:06.020Z,45.94
2018-12-05T04:31:05.989Z,45.24
2018-12-05T04:32:06.002Z,45.94
2018-12-05T04:33:05.971Z,46.54
2018-12-05T04:34:06.014Z,46.34
2018-12-05T04:35:05.950Z,46.44
2018-12-05T04:36:05.935Z,46.94
2018-12-05T04:37:05.933Z,47.04
2018-12-05T04:38:05.918Z,46.84
2018-12-05T04:39:05.918Z,47.14
2018-12-05T04:40:05.889Z,47.04
2018-12-05T04:41:05.876Z,46.74
2018-12-05T04:42:05.866Z,46.94
2018-12-05T04:43:05.962Z,47.14
2018-12-05T04:44:05.858Z,46.64
2018-12-05T04:45:05.832Z,47.14
2018-12-05T04:46:05.823Z,47.14
2018-12-05T04:47:05.837Z,46.24
2018-12-05T04:48:05.816Z,46.74
2018-12-05T04:49:05.818Z,46.34
2018-12-05T04:50:05.794Z,46.44
2018-12-05T04:51:05.770Z,46.74
2018-12-05T04:52:05.755Z,46.54
2018-12-05T04:53:05.783Z,46.44
2018-12-05T04:54:05.755Z,46.54
2018-12-05T04:55:05.750Z,46.84
2018-12-05T04:56:05.726Z,46.04
2018-12-05T04:57:05.703Z,46.04
2018-12-05T04:58:05.688Z,45.94
2018-12-05T04:59:05.712Z,45.34
2018-12-05T05:00:05.669Z,45.34
2018-12-05T05:01:05.687Z,45.86
2018-12-05T05:02:05.648Z,45.84
2018-12-05T05:03:05.657Z,46.04
2018-12-05T05:04:05.639Z,45.84
2018-12-05T05:05:05.619Z,46.04
2018-12-05T05:06:05.608Z,45.76
2018-12-05T05:07:07.068Z,45.24
2018-12-05T05:08:05.595Z,45.64
2018-12-05T05:09:05.590Z,45.64
2018-12-05T05:10:05.568Z,45.54
2018-12-05T05:11:05.562Z,45.24
2018-12-05T05:12:05.533Z,45.14
2018-12-05T05:13:05.539Z,45.14
2018-12-05T05:14:05.556Z,45.06
2018-12-05T05:15:05.502Z,45.34
2018-12-05T05:16:05.491Z,45.34
2018-12-05T05:17:05.486Z,45.24
2018-12-05T05:18:05.472Z,45.14
2018-12-05T05:19:05.484Z,45.54
2018-12-05T05:20:05.455Z,45.24
2018-12-05T05:21:05.452Z,45.14
2018-12-05T05:22:05.425Z,44.86
2018-12-05T05:23:05.415Z,44.93
2018-12-05T05:24:05.439Z,44.46
2018-12-05T05:25:05.389Z,45.14
2018-12-05T05:26:05.380Z,45.14
2018-12-05T05:27:05.370Z,44.43
2018-12-05T05:28:05.360Z,44.93
2018-12-05T05:29:05.381Z,44.43
2018-12-05T05:30:05.345Z,44.43
2018-12-05T05:31:05.323Z,44.54
2018-12-05T05:32:05.327Z,44.43
2018-12-05T05:33:05.316Z,43.84
2018-12-05T05:34:05.315Z,43.76
2018-12-05T05:35:05.288Z,44.43
2018-12-05T05:36:05.276Z,44.74
2018-12-05T05:37:05.257Z,44.54
2018-12-05T05:38:05.257Z,43.96
2018-12-05T05:39:05.270Z,44.35
2018-12-05T05:40:05.227Z,44.43
2018-12-05T05:41:05.223Z,44.46
2018-12-05T05:42:05.224Z,44.43
2018-12-05T05:43:05.198Z,44.86
2018-12-05T05:44:05.198Z,44.06
2018-12-05T05:45:05.170Z,44.76
2018-12-05T05:46:05.158Z,44.76
2018-12-05T05:47:05.175Z,44.76
2018-12-05T05:48:05.134Z,44.66
2018-12-05T05:49:05.138Z,44.35
2018-12-05T05:50:05.126Z,44.56
2018-12-05T05:51:05.104Z,43.96
2018-12-05T05:52:05.091Z,43.76
2018-12-05T05:53:05.099Z,43.55
2018-12-05T05:54:05.084Z,44.06
2018-12-05T05:55:05.063Z,43.76
2018-12-05T05:56:05.086Z,43.76
2018-12-05T05:57:05.036Z,43.77
2018-12-05T05:58:05.028Z,43.96
2018-12-05T05:59:05.031Z,44.18
2018-12-05T06:00:05.032Z,44.18
2018-12-05T06:01:05.010Z,44.18
2018-12-05T06:02:04.987Z,44.26
2018-12-05T06:03:04.983Z,44.18
2018-12-05T06:04:04.979Z,44.18
2018-12-05T06:05:04.951Z,44.18
2018-12-05T06:06:04.947Z,44.26
2018-12-05T06:07:04.933Z,44.26
2018-12-05T06:08:04.915Z,44.28
2018-12-05T06:09:04.927Z,44.18
2018-12-05T06:10:04.903Z,43.98
2018-12-05T06:11:04.934Z,43.98
2018-12-05T06:12:04.875Z,43.88
2018-12-05T06:13:04.864Z,44.18
2018-12-05T06:14:04.896Z,44.18
2018-12-05T06:15:04.841Z,44.48
2018-12-05T06:16:04.833Z,43.88
2018-12-05T06:17:04.841Z,44.38
2018-12-05T06:18:04.814Z,43.88
2018-12-05T06:19:05.427Z,43.96
2018-12-05T06:20:04.780Z,43.96
2018-12-05T06:21:04.778Z,44.06
2018-12-05T06:22:04.758Z,44.38
2018-12-05T06:23:04.752Z,44.35
2018-12-05T06:24:04.789Z,44.08
2018-12-05T06:25:04.725Z,44.06
2018-12-05T06:26:04.720Z,43.85
2018-12-05T06:27:04.718Z,44.06
2018-12-05T06:28:04.698Z,43.85
2018-12-05T06:29:04.720Z,44.06
2018-12-05T06:30:04.678Z,44.06
2018-12-05T06:31:04.662Z,44.16
2018-12-05T06:32:04.655Z,43.76
2018-12-05T06:33:04.651Z,44.26
2018-12-05T06:34:04.663Z,44.16
2018-12-05T06:35:04.628Z,44.26
2018-12-05T06:36:04.602Z,44.06
2018-12-05T06:37:04.600Z,44.06
2018-12-05T06:38:04.593Z,43.96
2018-12-05T06:39:04.585Z,43.46
2018-12-05T06:40:04.562Z,43.96
2018-12-05T06:41:04.551Z,44.06
2018-12-05T06:42:04.563Z,44.06
2018-12-05T06:43:04.544Z,44.16
2018-12-05T06:44:04.530Z,44.06
2018-12-05T06:45:04.511Z,44.16
2018-12-05T06:46:04.523Z,44.06
2018-12-05T06:47:04.505Z,44.06
2018-12-05T06:48:04.471Z,44.06
2018-12-05T06:49:04.487Z,44.06
2018-12-05T06:50:04.453Z,44.26
2018-12-05T06:51:04.488Z,44.06
2018-12-05T06:52:04.433Z,43.85
2018-12-05T06:53:04.412Z,43.96
2018-12-05T06:54:04.426Z,43.85
2018-12-05T06:55:04.403Z,43.76
2018-12-05T06:56:04.392Z,43.76
2018-12-05T06:57:04.391Z,44.06
2018-12-05T06:58:04.356Z,44.06
2018-12-05T06:59:04.392Z,43.98
2018-12-05T07:00:04.342Z,43.76
2018-12-05T07:01:04.355Z,44.06
2018-12-05T07:02:04.315Z,44.08
2018-12-05T07:03:04.308Z,44.06
2018-12-05T07:04:04.314Z,44.18
2018-12-05T07:05:04.303Z,43.48
2018-12-05T07:06:04.276Z,44.18
2018-12-05T07:07:04.271Z,44.58
2018-12-05T07:08:04.267Z,43.48
2018-12-05T07:09:04.233Z,43.96
2018-12-05T07:10:04.237Z,44.28
2018-12-05T07:11:04.227Z,44.08
2018-12-05T07:12:04.206Z,44.18
2018-12-05T07:13:04.991Z,44.06
2018-12-05T07:14:04.191Z,44.06
2018-12-05T07:15:04.183Z,44.08
2018-12-05T07:16:04.168Z,43.96
2018-12-05T07:17:04.151Z,43.88
2018-12-05T07:18:04.155Z,43.77
2018-12-05T07:19:04.131Z,44.08
2018-12-05T07:20:04.154Z,44.08
2018-12-05T07:21:04.101Z,44.08
2018-12-05T07:22:04.088Z,44.48
2018-12-05T07:23:04.103Z,44.18
2018-12-05T07:24:04.068Z,44.08
2018-12-05T07:25:04.074Z,44.06
2018-12-05T07:26:04.046Z,44.08
2018-12-05T07:27:04.041Z,43.76
2018-12-05T07:28:04.022Z,44.18
2018-12-05T07:29:04.018Z,44.08
2018-12-05T07:30:04.015Z,44.08
2018-12-05T07:31:04.020Z,43.98
2018-12-05T07:32:03.977Z,44.08
2018-12-05T07:33:03.965Z,44.18
2018-12-05T07:34:03.985Z,44.18
2018-12-05T07:35:03.960Z,44.08
2018-12-05T07:36:03.936Z,44.08
2018-12-05T07:37:03.933Z,43.88
2018-12-05T07:38:03.919Z,43.77
2018-12-05T07:39:03.906Z,44.08
2018-12-05T07:40:03.922Z,43.88
2018-12-05T07:41:03.881Z,43.88
2018-12-05T07:42:03.876Z,43.88
2018-12-05T07:43:03.867Z,44.48
2018-12-05T07:44:03.857Z,43.88
2018-12-05T07:45:03.849Z,43.88
2018-12-05T07:46:03.837Z,44.48
2018-12-05T07:47:03.817Z,44.58
2018-12-05T07:48:03.804Z,44.48
2018-12-05T07:49:03.808Z,43.88
2018-12-05T07:50:03.839Z,43.98
2018-12-05T07:51:03.765Z,43.77
2018-12-05T07:52:03.754Z,43.88
2018-12-05T07:53:03.774Z,43.68
2018-12-05T07:54:03.739Z,43.68
2018-12-05T07:55:03.752Z,43.77
2018-12-05T07:56:03.725Z,43.98
2018-12-05T07:57:03.699Z,43.88
2018-12-05T07:58:03.693Z,43.88
2018-12-05T07:59:03.685Z,43.88
2018-12-05T08:00:03.687Z,43.77
2018-12-05T08:01:03.655Z,43.88
2018-12-05T08:02:03.652Z,44.08
2018-12-05T08:03:03.653Z,43.88
2018-12-05T08:04:03.632Z,43.68
2018-12-05T08:05:03.640Z,43.68
2018-12-05T08:06:03.600Z,43.27
2018-12-05T08:07:03.593Z,44.08
2018-12-05T08:08:03.578Z,44.08
2018-12-05T08:09:03.575Z,43.77
2018-12-05T08:10:03.574Z,43.48
2018-12-05T08:11:03.548Z,44.08
2018-12-05T08:12:03.557Z,43.77
2018-12-05T08:13:03.522Z,43.77
2018-12-05T08:14:03.513Z,43.88
2018-12-05T08:15:03.551Z,44.08
2018-12-05T08:16:03.490Z,43.88
2018-12-05T08:17:03.491Z,43.88
2018-12-05T08:18:03.474Z,43.88
2018-12-05T08:19:03.466Z,43.48
2018-12-05T08:20:03.458Z,43.98
2018-12-05T08:21:03.473Z,43.48
2018-12-05T08:22:03.423Z,43.48
2018-12-05T08:23:03.460Z,43.38
2018-12-05T08:24:03.404Z,43.48
2018-12-05T08:25:03.402Z,43.77
2018-12-05T08:26:03.378Z,43.77
2018-12-05T08:27:03.365Z,43.48
2018-12-05T08:28:03.353Z,43.88
2018-12-05T08:29:03.342Z,43.58
2018-12-05T08:30:03.371Z,43.48
2018-12-05T08:31:03.330Z,43.48
2018-12-05T08:32:03.368Z,43.48
2018-12-05T08:33:03.297Z,43.58
2018-12-05T08:34:03.287Z,43.38
2018-12-05T08:35:03.379Z,43.48
2018-12-05T08:36:03.274Z,43.58
2018-12-05T08:37:03.255Z,43.48
2018-12-05T08:38:03.245Z,43.27
2018-12-05T08:39:03.232Z,43.68
2018-12-05T08:40:03.303Z,43.68
2018-12-05T08:41:03.211Z,43.48
2018-12-05T08:42:03.205Z,43.27
2018-12-05T08:43:03.187Z,43.77
2018-12-05T08:44:03.186Z,43.77
2018-12-05T08:45:03.195Z,43.38
2018-12-05T08:46:03.161Z,43.27
2018-12-05T08:47:03.155Z,43.58
2018-12-05T08:48:03.137Z,43.27
2018-12-05T08:49:03.153Z,43.48
2018-12-05T08:50:03.125Z,43.48
2018-12-05T08:51:03.099Z,43.38
2018-12-05T08:52:03.086Z,43.48
2018-12-05T08:53:03.094Z,42.97
2018-12-05T08:54:03.066Z,43.77
2018-12-05T08:55:03.067Z,43.35
2018-12-05T08:56:03.041Z,43.05
2018-12-05T08:57:03.032Z,43.18
2018-12-05T08:58:03.029Z,43.18
2018-12-05T08:59:03.032Z,43.08
2018-12-05T09:00:03.013Z,43.46
2018-12-05T09:01:03.004Z,43.48
2018-12-05T09:02:02.974Z,43.48
2018-12-05T09:03:02.964Z,43.38
2018-12-05T09:04:02.958Z,43.48
2018-12-05T09:05:03.743Z,43.27
2018-12-05T09:06:02.928Z,43.48
2018-12-05T09:07:02.924Z,43.58
2018-12-05T09:08:02.912Z,43.58
2018-12-05T09:09:02.898Z,43.77
2018-12-05T09:10:02.977Z,43.18
2018-12-05T09:11:02.888Z,42.88
2018-12-05T09:12:02.864Z,43.27
2018-12-05T09:13:02.858Z,43.18
2018-12-05T09:14:02.851Z,43.16
2018-12-05T09:15:02.844Z,42.55
2018-12-05T09:16:02.840Z,43.27
2018-12-05T09:17:02.809Z,42.77
2018-12-05T09:18:02.804Z,42.96
2018-12-05T09:19:02.786Z,43.08
2018-12-05T09:20:02.779Z,43.16
2018-12-05T09:21:02.783Z,43.16
2018-12-05T09:22:02.768Z,42.96
2018-12-05T09:23:02.746Z,42.77
2018-12-05T09:24:02.740Z,42.97
2018-12-05T09:25:02.719Z,43.16
2018-12-05T09:26:02.737Z,43.18
2018-12-05T09:27:02.703Z,43.26
2018-12-05T09:28:02.684Z,43.16
2018-12-05T09:29:02.676Z,43.05
2018-12-05T09:30:02.664Z,42.76
2018-12-05T09:31:02.682Z,42.55
2018-12-05T09:32:02.669Z,43.05
2018-12-05T09:33:02.630Z,42.66
2018-12-05T09:34:02.617Z,42.55
2018-12-05T09:35:02.612Z,42.55
2018-12-05T09:36:02.611Z,42.96
2018-12-05T09:37:02.607Z,42.35
2018-12-05T09:38:02.577Z,42.85
2018-12-05T09:39:02.573Z,42.46
2018-12-05T09:40:02.555Z,42.66
2018-12-05T09:41:02.561Z,42.85
2018-12-05T09:42:02.532Z,42.66
2018-12-05T09:43:02.525Z,42.76
2018-12-05T09:44:02.508Z,42.66
2018-12-05T09:45:02.495Z,42.76
2018-12-05T09:46:02.514Z,42.85
2018-12-05T09:47:02.471Z,42.76
2018-12-05T09:48:02.485Z,42.66
2018-12-05T09:49:02.454Z,42.76
2018-12-05T09:50:02.439Z,42.96
2018-12-05T09:51:02.452Z,42.66
2018-12-05T09:52:02.418Z,42.85
2018-12-05T09:53:02.414Z,42.85
2018-12-05T09:54:02.395Z,42.63
2018-12-05T09:55:02.394Z,42.83
2018-12-05T09:56:02.425Z,42.85
2018-12-05T09:57:02.375Z,42.85
2018-12-05T09:58:02.359Z,42.96
2018-12-05T09:59:02.353Z,42.63
2018-12-05T10:00:02.347Z,42.96
2018-12-05T10:01:02.319Z,42.63
2018-12-05T10:02:02.373Z,42.85
2018-12-05T10:03:02.301Z,42.96
2018-12-05T10:04:02.290Z,42.85
2018-12-05T10:05:02.280Z,42.85
2018-12-05T10:06:02.277Z,42.85
2018-12-05T10:07:02.268Z,42.66
2018-12-05T10:08:02.242Z,42.46
2018-12-05T10:09:02.307Z,42.66
2018-12-05T10:10:02.233Z,42.76
2018-12-05T10:11:02.213Z,42.85
2018-12-05T10:12:02.216Z,42.85
2018-12-05T10:13:02.226Z,43.05
2018-12-05T10:14:02.178Z,42.55
2018-12-05T10:15:02.172Z,42.76
2018-12-05T10:16:02.229Z,42.55
2018-12-05T10:17:02.166Z,42.85
2018-12-05T10:18:02.130Z,42.66
2018-12-05T10:19:02.143Z,42.55
2018-12-05T10:20:02.114Z,42.96
2018-12-05T10:21:02.107Z,42.66
2018-12-05T10:22:02.101Z,42.74
2018-12-05T10:23:02.073Z,42.96
2018-12-05T10:24:02.077Z,42.85
2018-12-05T10:25:02.054Z,42.96
2018-12-05T10:26:02.041Z,42.96
2018-12-05T10:27:02.043Z,42.76
2018-12-05T10:28:02.020Z,42.66
2018-12-05T10:29:02.011Z,42.85
2018-12-05T10:30:02.025Z,42.66
2018-12-05T10:31:01.988Z,42.85
2018-12-05T10:32:01.999Z,42.96
2018-12-05T10:33:01.965Z,42.66
2018-12-05T10:34:01.955Z,42.85
2018-12-05T10:35:01.968Z,42.55
2018-12-05T10:36:01.950Z,42.85
2018-12-05T10:37:01.943Z,42.85
2018-12-05T10:38:01.947Z,42.76
2018-12-05T10:39:01.910Z,42.85
2018-12-05T10:40:01.892Z,42.35
2018-12-05T10:41:01.897Z,42.85
2018-12-05T10:42:01.878Z,42.76
2018-12-05T10:43:01.853Z,42.76
2018-12-05T10:44:01.864Z,42.55
2018-12-05T10:45:01.837Z,42.46
2018-12-05T10:46:01.820Z,42.74
2018-12-05T10:47:01.835Z,42.66
2018-12-05T10:48:01.806Z,42.85
2018-12-05T10:49:01.786Z,43.16
2018-12-05T10:50:01.794Z,43.26
2018-12-05T10:51:01.769Z,42.85
2018-12-05T10:52:01.798Z,43.05
2018-12-05T10:53:01.753Z,42.96
2018-12-05T10:54:01.736Z,43.16
2018-12-05T10:55:01.725Z,43.26
2018-12-05T10:56:01.729Z,42.76
2018-12-05T10:57:01.697Z,42.85
2018-12-05T10:58:01.703Z,42.76
2018-12-05T10:59:01.676Z,42.85
2018-12-05T11:00:01.666Z,42.83
2018-12-05T11:01:01.654Z,43.26
2018-12-05T11:02:01.658Z,43.05
2018-12-05T11:03:01.647Z,43.05
2018-12-05T11:04:01.629Z,43.05
2018-12-05T11:05:01.610Z,43.05
2018-12-05T11:06:01.598Z,43.26
2018-12-05T11:07:01.594Z,43.26
2018-12-05T11:08:01.593Z,43.24
2018-12-05T11:09:01.654Z,43.05
2018-12-05T11:10:01.553Z,43.16
2018-12-05T11:11:01.555Z,43.16
2018-12-05T11:12:01.532Z,43.35
2018-12-05T11:13:01.537Z,43.26
2018-12-05T11:14:01.521Z,43.26
2018-12-05T11:15:01.504Z,43.43
2018-12-05T11:16:01.487Z,43.26
2018-12-05T11:17:01.482Z,43.16
2018-12-05T11:18:01.481Z,43.24
2018-12-05T11:19:01.473Z,43.16
2018-12-05T11:20:01.444Z,43.13
2018-12-05T11:21:01.433Z,43.74
2018-12-05T11:22:01.428Z,43.26
2018-12-05T11:23:01.427Z,43.35
2018-12-05T11:24:01.400Z,43.26
2018-12-05T11:25:01.389Z,43.63
2018-12-05T11:26:01.491Z,43.16
2018-12-05T11:27:01.389Z,43.16
2018-12-05T11:28:01.370Z,43.46
2018-12-05T11:29:01.344Z,43.43
2018-12-05T11:30:01.339Z,43.46
2018-12-05T11:31:01.328Z,43.13
2018-12-05T11:32:01.310Z,43.16
2018-12-05T11:33:01.315Z,43.33
2018-12-05T11:34:01.292Z,43.43
2018-12-05T11:35:01.279Z,43.26
2018-12-05T11:36:01.272Z,43.43
2018-12-05T11:37:01.259Z,43.33
2018-12-05T11:38:01.264Z,43.43
2018-12-05T11:39:01.233Z,43.13
2018-12-05T11:40:01.222Z,43.43
2018-12-05T11:41:01.247Z,43.33
2018-12-05T11:42:01.202Z,43.33
2018-12-05T11:43:01.339Z,43.24
2018-12-05T11:44:01.197Z,43.13
2018-12-05T11:45:01.166Z,43.24
2018-12-05T11:46:01.164Z,43.13
2018-12-05T11:47:01.145Z,43.43
2018-12-05T11:48:01.149Z,43.43
2018-12-05T11:49:01.127Z,43.43
2018-12-05T11:50:01.175Z,43.43
2018-12-05T11:51:01.102Z,43.33
2018-12-05T11:52:01.090Z,43.43
2018-12-05T11:53:01.372Z,43.33
2018-12-05T11:54:01.075Z,43.93
2018-12-05T11:55:01.090Z,43.84
2018-12-05T11:56:01.056Z,44.04
2018-12-05T11:57:01.054Z,43.84
2018-12-05T11:58:01.023Z,43.84
2018-12-05T11:59:01.029Z,44.04
2018-12-05T12:00:01.001Z,44.04
2018-12-05T12:01:00.999Z,43.43
2018-12-05T12:02:00.989Z,44.13
2018-12-05T12:03:00.982Z,44.04
2018-12-05T12:04:00.985Z,44.24
2018-12-05T12:05:00.955Z,43.93
2018-12-05T12:06:00.937Z,43.93
2018-12-05T12:07:00.930Z,43.84
2018-12-05T12:08:00.920Z,43.93
2018-12-05T12:09:00.920Z,43.93
2018-12-05T12:10:00.918Z,44.04
2018-12-05T12:11:00.879Z,44.13
2018-12-05T12:12:00.882Z,44.12
2018-12-05T12:13:00.858Z,44.24
2018-12-05T12:14:00.867Z,44.24
2018-12-05T12:15:00.872Z,43.93
2018-12-05T12:16:00.824Z,43.84
2018-12-05T12:17:00.814Z,43.84
2018-12-05T12:18:00.813Z,44.42
2018-12-05T12:19:00.811Z,43.91
2018-12-05T12:20:00.800Z,44.21
2018-12-05T12:21:00.781Z,44.21
2018-12-05T12:22:00.759Z,43.91
2018-12-05T12:23:00.753Z,44.12
2018-12-05T12:24:00.794Z,44.12
2018-12-05T12:25:00.732Z,44.01
2018-12-05T12:26:00.720Z,44.21
2018-12-05T12:27:00.718Z,43.91
2018-12-05T12:28:00.692Z,44.12
2018-12-05T12:29:00.716Z,44.21
2018-12-05T12:30:00.672Z,44.12
2018-12-05T12:31:00.659Z,44.21
2018-12-05T12:32:00.659Z,44.12
2018-12-05T12:33:00.637Z,44.12
2018-12-05T12:34:00.632Z,44.12
2018-12-05T12:35:00.632Z,44.29
2018-12-05T12:36:00.613Z,44.12
2018-12-05T12:37:00.593Z,44.12
2018-12-05T12:38:00.584Z,44.09
2018-12-05T12:39:00.573Z,43.99
2018-12-05T12:40:00.576Z,44.12
2018-12-05T12:41:00.880Z,44.01
2018-12-05T12:42:00.595Z,44.01
2018-12-05T12:43:00.527Z,44.12
2018-12-05T12:44:00.517Z,44.01
2018-12-05T12:45:01.275Z,44.01
2018-12-05T12:46:00.692Z,44.12
2018-12-05T12:47:00.494Z,43.70
2018-12-05T12:48:00.487Z,43.82
2018-12-05T12:49:00.463Z,43.82
2018-12-05T12:50:00.473Z,43.82
2018-12-05T12:51:00.440Z,44.12
2018-12-05T12:52:00.435Z,43.82